createdAt,value
2018-05-01T00:00:11.192Z,18.02
2018-05-01T00:02:39.680Z,18.05
2018-05-01T00:05:08.223Z,18.10
2018-05-01T00:07:36.695Z,18.09
2018-05-01T00:10:05.231Z,18.09
2018-05-01T00:12:33.764Z,18.10
2018-05-01T00:15:02.265Z,18.12
2018-05-01T00:17:30.765Z,18.10
2018-05-01T00:19:59.242Z,18.12
2018-05-01T00:22:27.740Z,18.09
2018-05-01T00:24:56.194Z,18.11
2018-05-01T00:27:24.680Z,18.11
2018-05-01T00:29:53.146Z,18.03
2018-05-01T00:32:21.684Z,18.08
2018-05-01T00:34:50.140Z,18.06
2018-05-01T00:37:18.645Z,18.03
2018-05-01T00:39:47.110Z,18.05
2018-05-01T00:42:15.608Z,18.05
2018-05-01T00:44:44.101Z,18.03
2018-05-01T00:47:12.577Z,17.91
2018-05-01T00:49:41.113Z,17.80
2018-05-01T00:52:21.257Z,17.79
2018-05-01T00:54:49.794Z,17.72
2018-05-01T00:57:18.259Z,17.71
2018-05-01T00:59:46.712Z,17.69
2018-05-01T01:02:15.202Z,17.63
2018-05-01T01:04:43.701Z,17.56
2018-05-01T01:07:12.244Z,17.52
2018-05-01T01:09:40.693Z,17.50
2018-05-01T01:12:09.203Z,17.46
2018-05-01T01:14:37.712Z,17.42
2018-05-01T01:17:06.283Z,17.42
2018-05-01T01:19:34.680Z,17.42
2018-05-01T01:22:03.199Z,17.33
2018-05-01T01:24:31.661Z,17.31
2018-05-01T01:27:00.104Z,17.35
2018-05-01T01:29:28.604Z,17.33
2018-05-01T01:32:02.652Z,17.38
2018-05-01T01:34:31.188Z,17.28
2018-05-01T01:36:59.142Z,17.27
2018-05-01T01:39:27.120Z,17.35
2018-05-01T01:41:55.067Z,17.29
2018-05-01T01:44:23.012Z,17.26
2018-05-01T01:46:50.940Z,17.22
2018-05-01T01:49:18.897Z,17.03
2018-05-01T01:51:46.876Z,17.06
2018-05-01T01:54:14.805Z,16.98
2018-05-01T01:56:42.756Z,16.91
2018-05-01T01:59:10.685Z,16.78
2018-05-01T02:01:38.651Z,16.73
2018-05-01T02:04:06.600Z,16.64
2018-05-01T02:06:34.554Z,16.64
2018-05-01T02:09:02.503Z,16.70
2018-05-01T02:11:30.510Z,16.59
2018-05-01T02:13:58.422Z,16.61
2018-05-01T02:16:26.397Z,16.63
2018-05-01T02:18:54.328Z,16.43
2018-05-01T02:21:22.281Z,16.51
2018-05-01T02:23:50.248Z,16.43
2018-05-01T02:26:18.210Z,16.57
2018-05-01T02:28:46.129Z,16.47
2018-05-01T02:31:14.088Z,16.56
2018-05-01T02:33:42.077Z,16.43
2018-05-01T02:36:10.026Z,16.44
2018-05-01T02:38:37.968Z,16.24
2018-05-01T02:41:05.942Z,16.27
2018-05-01T02:43:33.871Z,16.24
2018-05-01T02:46:01.824Z,16.12
2018-05-01T02:48:29.756Z,16.19
2018-05-01T02:50:57.754Z,16.17
2018-05-01T02:53:25.722Z,16.23
2018-05-01T02:55:53.690Z,16.26
2018-05-01T02:58:21.669Z,16.10
2018-05-01T03:00:49.650Z,16.06
2018-05-01T03:03:17.624Z,16.04
2018-05-01T03:05:45.564Z,16.10
2018-05-01T03:08:13.546Z,16.13
2018-05-01T03:10:41.493Z,16.10
2018-05-01T03:13:09.429Z,16.06
2018-05-01T03:15:37.416Z,16.09
2018-05-01T03:18:05.350Z,16.18
2018-05-01T03:20:33.325Z,16.23
2018-05-01T03:23:01.253Z,16.15
2018-05-01T03:25:29.211Z,16.21
2018-05-01T03:27:57.128Z,16.23
2018-05-01T03:30:25.121Z,16.11
2018-05-01T03:32:53.076Z,16.18
2018-05-01T03:35:21.143Z,16.08
2018-05-01T03:37:49.060Z,16.12
2018-05-01T03:40:17.024Z,16.15
2018-05-01T03:42:44.944Z,16.24
2018-05-01T03:45:12.860Z,16.36
2018-05-01T03:47:40.816Z,16.43
2018-05-01T03:50:08.782Z,16.51
2018-05-01T03:52:36.708Z,16.54
2018-05-01T03:55:04.657Z,16.62
2018-05-01T03:57:32.621Z,16.65
2018-05-01T04:00:00.544Z,16.66
2018-05-01T04:02:28.489Z,16.82
2018-05-01T04:04:56.402Z,16.78
2018-05-01T04:07:24.348Z,16.91
2018-05-01T04:09:52.297Z,17.03
2018-05-01T04:12:20.220Z,17.13
2018-05-01T04:14:48.183Z,17.17
2018-05-01T04:17:16.123Z,17.32
2018-05-01T04:19:44.081Z,17.29
2018-05-01T04:22:11.991Z,17.52
2018-05-01T04:24:39.948Z,17.57
2018-05-01T04:27:07.886Z,17.69
2018-05-01T04:29:35.864Z,17.71
2018-05-01T04:32:03.793Z,17.77
2018-05-01T04:34:31.779Z,17.87
2018-05-01T04:36:59.760Z,17.92
2018-05-01T04:39:27.739Z,18.19
2018-05-01T04:41:55.708Z,18.29
2018-05-01T04:44:23.642Z,18.39
2018-05-01T04:46:51.563Z,18.39
2018-05-01T04:49:19.489Z,18.63
2018-05-01T04:51:47.477Z,18.65
2018-05-01T04:54:15.408Z,18.78
2018-05-01T04:56:43.346Z,18.99
2018-05-01T04:59:11.308Z,19.29
2018-05-01T05:01:39.245Z,19.27
2018-05-01T05:04:07.227Z,19.26
2018-05-01T05:06:35.196Z,19.46
2018-05-01T05:09:03.132Z,19.64
2018-05-01T05:11:31.072Z,19.79
2018-05-01T05:13:59.046Z,19.91
2018-05-01T05:16:26.964Z,20.19
2018-05-01T05:18:54.933Z,20.18
2018-05-01T05:21:22.860Z,20.24
2018-05-01T05:23:50.820Z,20.23
2018-05-01T05:26:18.745Z,20.48
2018-05-01T05:28:46.740Z,20.58
2018-05-01T05:31:14.672Z,20.85
2018-05-01T05:33:42.628Z,21.23
2018-05-01T05:36:10.548Z,21.32
2018-05-01T05:38:38.728Z,21.41
2018-05-01T05:41:06.699Z,21.58
2018-05-01T05:43:34.668Z,21.64
2018-05-01T05:46:02.640Z,21.79
2018-05-01T05:48:30.604Z,21.73
2018-05-01T05:50:58.522Z,22.08
2018-05-01T05:53:26.509Z,22.08
2018-05-01T05:55:54.482Z,22.23
2018-05-01T05:58:22.433Z,22.12
2018-05-01T06:00:50.392Z,22.33
2018-05-01T06:03:18.316Z,22.29
2018-05-01T06:05:46.280Z,22.40
2018-05-01T06:08:14.301Z,22.65
2018-05-01T06:10:42.216Z,22.68
2018-05-01T06:13:10.180Z,22.74
2018-05-01T06:15:38.108Z,22.83
2018-05-01T06:18:06.080Z,22.93
2018-05-01T06:20:34.041Z,23.02
2018-05-01T06:23:01.972Z,23.21
2018-05-01T06:25:29.941Z,23.09
2018-05-01T06:27:57.878Z,22.99
2018-05-01T06:30:25.838Z,23.15
2018-05-01T06:32:53.770Z,23.38
2018-05-01T06:35:21.720Z,23.54
2018-05-01T06:37:49.691Z,23.43
2018-05-01T06:40:17.612Z,23.37
2018-05-01T06:42:45.564Z,23.85
2018-05-01T06:45:13.488Z,24.13
2018-05-01T06:47:41.484Z,23.98
2018-05-01T06:50:09.405Z,24.00
2018-05-01T06:52:37.437Z,24.25
2018-05-01T06:55:05.368Z,24.18
2018-05-01T06:57:33.297Z,24.43
2018-05-01T07:00:01.259Z,24.53
2018-05-01T07:02:29.216Z,24.78
2018-05-01T07:04:57.192Z,24.84
2018-05-01T07:07:25.114Z,24.64
2018-05-01T07:09:53.041Z,24.83
2018-05-01T07:12:21.032Z,24.81
2018-05-01T07:14:48.965Z,24.76
2018-05-01T07:17:16.881Z,24.83
2018-05-01T07:19:44.836Z,24.81
2018-05-01T07:22:12.784Z,25.13
2018-05-01T07:24:40.737Z,25.50
2018-05-01T07:27:08.647Z,25.43
2018-05-01T07:29:36.603Z,25.67
2018-05-01T07:32:04.507Z,25.71
2018-05-01T07:34:32.493Z,25.65
2018-05-01T07:37:00.456Z,25.66
2018-05-01T07:39:28.377Z,25.51
2018-05-01T07:41:56.337Z,25.66
2018-05-01T07:44:24.304Z,25.82
2018-05-01T07:46:52.256Z,25.69
2018-05-01T07:49:20.226Z,25.95
2018-05-01T07:51:48.193Z,26.07
2018-05-01T07:54:16.180Z,26.12
2018-05-01T07:56:44.125Z,26.07
2018-05-01T07:59:12.093Z,25.99
2018-05-01T08:01:40.040Z,26.00
2018-05-01T08:04:07.936Z,26.04
2018-05-01T08:06:35.902Z,26.20
2018-05-01T08:09:03.831Z,26.10
2018-05-01T08:11:31.788Z,26.11
2018-05-01T08:13:59.713Z,26.17
2018-05-01T08:16:27.708Z,26.11
2018-05-01T08:18:55.664Z,26.33
2018-05-01T08:21:23.570Z,26.24
2018-05-01T08:23:51.565Z,26.48
2018-05-01T08:26:19.480Z,26.73
2018-05-01T08:28:47.434Z,26.68
2018-05-01T08:31:15.384Z,26.76
2018-05-01T08:33:43.323Z,26.87
2018-05-01T08:36:11.244Z,26.81
2018-05-01T08:38:39.204Z,26.84
2018-05-01T08:41:07.156Z,27.06
2018-05-01T08:43:35.072Z,26.88
2018-05-01T08:46:03.016Z,26.66
2018-05-01T08:48:30.937Z,26.76
2018-05-01T08:50:58.936Z,26.91
2018-05-01T08:53:26.900Z,27.01
2018-05-01T08:55:54.908Z,27.14
2018-05-01T08:58:22.830Z,27.26
2018-05-01T09:00:50.788Z,27.29
2018-05-01T09:03:18.710Z,27.54
2018-05-01T09:05:46.664Z,27.42
2018-05-01T09:08:14.558Z,27.50
2018-05-01T09:10:42.512Z,27.75
2018-05-01T09:13:10.444Z,27.95
2018-05-01T09:15:38.397Z,28.01
2018-05-01T09:18:06.536Z,27.84
2018-05-01T09:20:34.349Z,27.87
2018-05-01T09:23:02.264Z,27.97
2018-05-01T09:25:30.233Z,28.28
2018-05-01T09:27:58.144Z,28.20
2018-05-01T09:30:26.108Z,28.09
2018-05-01T09:32:54.028Z,28.14
2018-05-01T09:35:21.988Z,28.05
2018-05-01T09:37:49.952Z,28.09
2018-05-01T09:40:17.903Z,28.41
2018-05-01T09:42:45.877Z,28.21
2018-05-01T09:45:13.830Z,28.26
2018-05-01T09:47:42.680Z,28.33
2018-05-01T09:50:10.660Z,28.43
2018-05-01T09:52:39.138Z,28.35
2018-05-01T09:55:07.633Z,28.24
2018-05-01T09:57:36.089Z,28.28
2018-05-01T10:00:04.617Z,28.30
2018-05-01T10:02:33.106Z,28.31
2018-05-01T10:05:01.575Z,28.44
2018-05-01T10:07:30.099Z,28.43
2018-05-01T10:09:58.544Z,28.31
2018-05-01T10:12:27.042Z,28.63
2018-05-01T10:14:55.508Z,28.36
2018-05-01T10:17:24.000Z,28.49
2018-05-01T10:19:52.465Z,28.53
2018-05-01T10:22:20.964Z,28.43
2018-05-01T10:24:49.446Z,28.32
2018-05-01T10:27:17.929Z,28.31
2018-05-01T10:29:46.424Z,28.61
2018-05-01T10:32:14.932Z,28.66
2018-05-01T10:34:43.377Z,28.90
2018-05-01T10:37:11.880Z,28.96
2018-05-01T10:39:40.385Z,28.94
2018-05-01T10:42:08.868Z,29.03
2018-05-01T10:44:37.321Z,29.10
2018-05-01T10:47:05.780Z,28.90
2018-05-01T10:49:34.289Z,28.97
2018-05-01T10:52:02.781Z,29.03
2018-05-01T10:54:31.245Z,29.13
2018-05-01T10:56:59.721Z,29.13
2018-05-01T10:59:28.172Z,29.20
2018-05-01T11:01:56.695Z,29.27
2018-05-01T11:04:25.152Z,29.31
2018-05-01T11:06:53.603Z,29.14
2018-05-01T11:09:22.095Z,29.02
2018-05-01T11:11:50.618Z,29.20
2018-05-01T11:14:19.116Z,29.26
2018-05-01T11:16:47.596Z,29.30
2018-05-01T11:19:16.052Z,29.23
2018-05-01T11:21:44.516Z,29.36
2018-05-01T11:24:13.010Z,29.30
2018-05-01T11:26:41.496Z,29.24
2018-05-01T11:29:09.956Z,29.33
2018-05-01T11:31:38.438Z,29.43
2018-05-01T11:34:06.889Z,29.42
2018-05-01T11:36:35.388Z,29.38
2018-05-01T11:39:03.945Z,29.48
2018-05-01T11:41:32.448Z,29.43
2018-05-01T11:44:00.906Z,29.45
2018-05-01T11:46:29.577Z,29.42
2018-05-01T11:48:57.925Z,29.42
2018-05-01T11:51:26.375Z,29.18
2018-05-01T11:53:54.862Z,29.32
2018-05-01T11:56:23.317Z,29.50
2018-05-01T11:58:51.804Z,29.45
2018-05-01T12:01:20.261Z,29.53
2018-05-01T12:03:48.762Z,29.51
2018-05-01T12:06:17.217Z,29.43
2018-05-01T12:08:45.720Z,29.50
2018-05-01T12:11:14.179Z,29.52
2018-05-01T12:13:42.629Z,29.53
2018-05-01T12:16:11.222Z,29.62
2018-05-01T12:18:39.707Z,29.51
2018-05-01T12:21:08.209Z,29.44
2018-05-01T12:23:36.660Z,29.53
2018-05-01T12:26:05.216Z,29.51
2018-05-01T12:28:33.720Z,29.53
2018-05-01T12:31:02.155Z,29.46
2018-05-01T12:33:30.637Z,29.51
2018-05-01T12:35:59.080Z,29.58
2018-05-01T12:38:27.580Z,29.35
2018-05-01T12:40:56.036Z,29.54
2018-05-01T12:43:24.530Z,29.65
2018-05-01T12:45:53.034Z,29.71
2018-05-01T12:48:21.663Z,29.80
2018-05-01T12:50:50.176Z,29.94
2018-05-01T12:53:18.658Z,29.97
2018-05-01T12:55:47.108Z,30.05
2018-05-01T12:58:15.602Z,30.11
2018-05-01T13:00:44.047Z,29.95
2018-05-01T13:03:12.539Z,29.94
2018-05-01T13:05:41.007Z,29.88
2018-05-01T13:08:09.497Z,29.84
2018-05-01T13:10:38.030Z,29.74
2018-05-01T13:13:06.613Z,29.64
2018-05-01T13:15:35.052Z,29.55
2018-05-01T13:18:03.572Z,29.38
2018-05-01T13:20:32.068Z,29.32
2018-05-01T13:23:00.570Z,29.17
2018-05-01T13:25:29.108Z,29.10
2018-05-01T13:27:57.569Z,29.09
2018-05-01T13:30:26.048Z,28.99
2018-05-01T13:32:54.500Z,28.91
2018-05-01T13:35:22.992Z,28.82
2018-05-01T13:37:51.495Z,28.76
2018-05-01T13:40:19.974Z,28.77
2018-05-01T13:42:48.428Z,28.69
2018-05-01T13:45:16.968Z,28.59
2018-05-01T13:47:45.404Z,28.60
2018-05-01T13:50:13.892Z,28.57
2018-05-01T13:52:42.367Z,28.57
2018-05-01T13:55:10.857Z,28.52
2018-05-01T13:57:39.336Z,28.52
2018-05-01T14:00:07.785Z,28.44
2018-05-01T14:02:36.276Z,28.42
2018-05-01T14:05:04.763Z,28.38
2018-05-01T14:07:33.201Z,28.38
2018-05-01T14:10:01.704Z,28.33
2018-05-01T14:12:30.219Z,28.27
2018-05-01T14:14:58.700Z,28.26
2018-05-01T14:17:27.190Z,28.22
2018-05-01T14:19:55.633Z,28.23
2018-05-01T14:22:24.085Z,28.17
2018-05-01T14:24:52.576Z,28.13
2018-05-01T14:27:21.068Z,28.10
2018-05-01T14:29:49.556Z,28.03
2018-05-01T14:32:18.005Z,28.00
2018-05-01T14:34:46.497Z,27.97
2018-05-01T14:37:14.956Z,27.92
2018-05-01T14:39:43.461Z,28.00
2018-05-01T14:42:12.062Z,27.87
2018-05-01T14:44:40.492Z,27.87
2018-05-01T14:47:08.977Z,27.87
2018-05-01T14:49:37.488Z,27.86
2018-05-01T14:52:05.940Z,27.83
2018-05-01T14:54:34.486Z,27.84
2018-05-01T14:57:02.978Z,27.84
2018-05-01T14:59:31.450Z,27.82
2018-05-01T15:01:59.940Z,27.81
2018-05-01T15:04:28.396Z,27.71
2018-05-01T15:06:56.894Z,27.77
2018-05-01T15:09:25.348Z,27.75
2018-05-01T15:11:53.884Z,27.69
2018-05-01T15:14:22.329Z,27.65
2018-05-01T15:16:50.839Z,27.62
2018-05-01T15:19:19.336Z,27.56
2018-05-01T15:21:47.797Z,27.49
2018-05-01T15:24:16.245Z,27.47
2018-05-01T15:26:44.689Z,27.45
2018-05-01T15:29:13.149Z,27.41
2018-05-01T15:31:41.610Z,27.39
2018-05-01T15:34:10.126Z,27.35
2018-05-01T15:36:38.588Z,27.30
2018-05-01T15:39:07.048Z,27.23
2018-05-01T15:41:35.553Z,27.22
2018-05-01T15:44:04.057Z,27.14
2018-05-01T15:46:32.519Z,27.18
2018-05-01T15:49:01.042Z,27.12
2018-05-01T15:51:29.513Z,26.98
2018-05-01T15:53:57.988Z,26.89
2018-05-01T15:56:26.535Z,26.87
2018-05-01T15:58:55.011Z,26.80
2018-05-01T16:01:23.497Z,26.75
2018-05-01T16:03:52.017Z,26.67
2018-05-01T16:06:20.484Z,26.58
2018-05-01T16:08:48.989Z,26.56
2018-05-01T16:11:17.430Z,26.52
2018-05-01T16:13:45.943Z,26.49
2018-05-01T16:16:14.420Z,26.37
2018-05-01T16:18:42.908Z,26.30
2018-05-01T16:21:11.480Z,26.28
2018-05-01T16:23:39.928Z,26.21
2018-05-01T16:26:08.431Z,26.11
2018-05-01T16:28:36.880Z,26.01
2018-05-01T16:31:05.389Z,25.99
2018-05-01T16:33:33.854Z,25.89
2018-05-01T16:36:02.463Z,25.86
2018-05-01T16:38:30.936Z,25.73
2018-05-01T16:40:59.436Z,25.66
2018-05-01T16:43:27.919Z,25.51
2018-05-01T16:45:56.375Z,25.34
2018-05-01T16:48:24.872Z,25.36
2018-05-01T16:50:53.438Z,25.35
2018-05-01T16:53:21.923Z,25.25
2018-05-01T16:55:50.413Z,25.16
2018-05-01T16:58:18.904Z,25.10
2018-05-01T17:00:47.396Z,25.04
2018-05-01T17:03:15.892Z,24.91
2018-05-01T17:05:44.349Z,24.76
2018-05-01T17:08:12.812Z,24.68
2018-05-01T17:10:41.321Z,24.67
2018-05-01T17:13:09.787Z,24.58
2018-05-01T17:15:38.249Z,24.54
2018-05-01T17:18:06.744Z,24.49
2018-05-01T17:20:35.173Z,24.36
2018-05-01T17:23:03.652Z,24.34
2018-05-01T17:25:32.107Z,24.23
2018-05-01T17:28:00.653Z,24.15
2018-05-01T17:30:29.129Z,24.05
2018-05-01T17:32:57.588Z,23.91
2018-05-01T17:35:26.152Z,23.87
2018-05-01T17:37:54.620Z,23.78
2018-05-01T17:40:23.076Z,23.73
2018-05-01T17:42:51.565Z,23.66
2018-05-01T17:45:20.026Z,23.56
2018-05-01T17:47:48.516Z,23.45
2018-05-01T17:50:17.012Z,23.40
2018-05-01T17:52:45.500Z,23.34
2018-05-01T17:55:13.993Z,23.26
2018-05-01T17:57:42.488Z,23.23
2018-05-01T18:00:10.946Z,23.16
2018-05-01T18:02:39.437Z,23.10
2018-05-01T18:05:07.892Z,23.03
2018-05-01T18:07:36.388Z,22.99
2018-05-01T18:10:04.840Z,22.93
2018-05-01T18:12:33.361Z,22.89
2018-05-01T18:15:01.824Z,22.82
2018-05-01T18:17:30.288Z,22.75
2018-05-01T18:19:58.782Z,22.68
2018-05-01T18:22:27.254Z,22.60
2018-05-01T18:24:55.749Z,22.48
2018-05-01T18:27:24.237Z,22.45
2018-05-01T18:29:52.721Z,22.39
2018-05-01T18:32:21.182Z,22.34
2018-05-01T18:34:49.647Z,22.30
2018-05-01T18:37:18.136Z,22.20
2018-05-01T18:39:46.612Z,22.23
2018-05-01T18:42:15.108Z,22.21
2018-05-01T18:44:43.605Z,22.09
2018-05-01T18:47:12.056Z,21.99
2018-05-01T18:49:40.552Z,22.03
2018-05-01T18:52:09.044Z,21.99
2018-05-01T18:54:37.597Z,21.92
2018-05-01T18:57:06.104Z,21.89
2018-05-01T18:59:34.585Z,21.88
2018-05-01T19:02:03.085Z,21.86
2018-05-01T19:04:31.669Z,21.82
2018-05-01T19:07:00.101Z,21.80
2018-05-01T19:09:28.566Z,21.75
2018-05-01T19:11:57.047Z,21.75
2018-05-01T19:14:25.580Z,21.68
2018-05-01T19:16:54.073Z,21.62
2018-05-01T19:19:22.516Z,21.64
2018-05-01T19:21:51.000Z,21.51
2018-05-01T19:24:19.511Z,21.46
2018-05-01T19:26:47.982Z,21.43
2018-05-01T19:29:16.473Z,21.40
2018-05-01T19:31:44.944Z,21.27
2018-05-01T19:34:13.473Z,21.24
2018-05-01T19:36:42.004Z,21.13
2018-05-01T19:39:10.462Z,21.19
2018-05-01T19:41:38.923Z,21.14
2018-05-01T19:44:07.417Z,21.08
2018-05-01T19:46:35.931Z,21.06
2018-05-01T19:49:04.432Z,20.96
2018-05-01T19:51:32.924Z,20.96
2018-05-01T19:54:01.424Z,20.95
2018-05-01T19:56:29.959Z,20.91
2018-05-01T19:58:58.452Z,20.90
2018-05-01T20:01:26.969Z,20.91
2018-05-01T20:03:55.449Z,20.90
2018-05-01T20:06:23.949Z,20.85
2018-05-01T20:08:52.451Z,20.75
2018-05-01T20:11:20.945Z,20.84
2018-05-01T20:13:49.445Z,20.79
2018-05-01T20:16:17.940Z,20.75
2018-05-01T20:18:46.389Z,20.70
2018-05-01T20:21:14.844Z,20.67
2018-05-01T20:23:43.341Z,20.65
2018-05-01T20:26:11.808Z,20.62
2018-05-01T20:28:40.273Z,20.61
2018-05-01T20:31:08.772Z,20.58
2018-05-01T20:33:37.278Z,20.55
2018-05-01T20:36:05.767Z,20.57
2018-05-01T20:38:34.268Z,20.52
2018-05-01T20:41:02.763Z,20.53
2018-05-01T20:43:31.284Z,20.51
2018-05-01T20:45:59.808Z,20.51
2018-05-01T20:48:28.328Z,20.52
2018-05-01T20:50:56.824Z,20.51
2018-05-01T20:53:25.325Z,20.56
2018-05-01T20:55:53.772Z,20.48
2018-05-01T20:58:22.228Z,20.44
2018-05-01T21:00:50.724Z,20.43
2018-05-01T21:03:19.210Z,20.36
2018-05-01T21:05:47.672Z,20.36
2018-05-01T21:08:16.183Z,20.36
2018-05-01T21:10:44.704Z,20.30
2018-05-01T21:13:13.200Z,20.27
2018-05-01T21:15:41.656Z,20.18
2018-05-01T21:18:10.156Z,20.15
2018-05-01T21:20:38.640Z,20.07
2018-05-01T21:23:07.144Z,20.02
2018-05-01T21:25:35.620Z,19.97
2018-05-01T21:28:04.124Z,19.97
2018-05-01T21:30:32.591Z,19.86
2018-05-01T21:33:01.097Z,19.84
2018-05-01T21:35:29.578Z,19.80
2018-05-01T21:37:58.040Z,19.77
2018-05-01T21:40:26.537Z,19.73
2018-05-01T21:42:55.090Z,19.66
2018-05-01T21:45:23.578Z,19.63
2018-05-01T21:47:52.045Z,19.61
2018-05-01T21:50:20.517Z,19.56
2018-05-01T21:52:48.968Z,19.53
2018-05-01T21:55:17.451Z,19.49
2018-05-01T21:57:45.956Z,19.51
2018-05-01T22:00:14.424Z,19.49
2018-05-01T22:02:42.904Z,19.46
2018-05-01T22:05:11.407Z,19.40
2018-05-01T22:07:39.852Z,19.38
2018-05-01T22:10:08.387Z,19.35
2018-05-01T22:12:36.864Z,19.33
2018-05-01T22:15:05.373Z,19.31
2018-05-01T22:17:33.901Z,19.23
2018-05-01T22:20:02.365Z,19.22
2018-05-01T22:22:30.860Z,19.20
2018-05-01T22:24:59.308Z,19.17
2018-05-01T22:27:27.793Z,19.15
2018-05-01T22:29:56.256Z,19.10
2018-05-01T22:32:24.752Z,19.06
2018-05-01T22:34:53.201Z,19.01
2018-05-01T22:37:21.692Z,18.98
2018-05-01T22:39:50.137Z,18.94
2018-05-01T22:42:18.658Z,18.91
2018-05-01T22:44:47.124Z,18.84
2018-05-01T22:47:15.635Z,18.81
2018-05-01T22:49:44.125Z,18.73
2018-05-01T22:52:12.572Z,18.69
2018-05-01T22:54:41.065Z,18.63
2018-05-01T22:57:09.577Z,18.59
2018-05-01T22:59:38.070Z,18.60
2018-05-01T23:02:06.532Z,18.59
2018-05-01T23:04:35.072Z,18.58
2018-05-01T23:07:03.556Z,18.58
2018-05-01T23:09:32.061Z,18.45
2018-05-01T23:12:00.509Z,18.48
2018-05-01T23:14:29.043Z,18.42
2018-05-01T23:16:57.496Z,18.39
2018-05-01T23:19:25.998Z,18.26
2018-05-01T23:21:54.449Z,18.35
2018-05-01T23:24:22.920Z,18.24
2018-05-01T23:26:51.406Z,18.23
2018-05-01T23:29:19.901Z,18.15
2018-05-01T23:31:48.393Z,18.23
2018-05-01T23:34:16.845Z,18.21
2018-05-01T23:36:45.340Z,18.17
2018-05-01T23:39:13.787Z,18.13
2018-05-01T23:41:42.237Z,18.11
2018-05-01T23:44:10.712Z,18.08
2018-05-01T23:46:39.156Z,18.04
2018-05-01T23:49:07.660Z,17.93
2018-05-01T23:51:36.115Z,17.95
2018-05-01T23:54:04.631Z,17.95
2018-05-01T23:56:33.102Z,17.82
2018-05-01T23:59:01.601Z,17.87
